Silver Cloud — C6MQ5 — position and weather

sailwx.info

Track history (hours):
 
Tides and Currents Weather Stations Pressure Air Temp Water Temp Dewpoint Dewpoint Depression Visibility Wind Speed Wind Dir Waves Ship Positions

Silver Cloud

Operator: V Ships Leisure SAM

Last reported at 2014-Sep-01 06:28 UTC. Time now 2014-Sep-01 11:44 UTC.
Position N 50°53' W 001°24'.

Length 155 m; draft 5.7 m.

Type: Passenger vessel. MMSI: 309027000.

Date/timePositionNaut miles runAvg speedWind from/ knotsBaromVisibWave heightAir tempDewpointWater temp
2014-Sep-01 06:28N 50°53' W 001°24'1 0.6
2014-Sep-01 05:33N 50°53' W 001°23'1010.2
2014-Sep-01 04:33N 50°46' W 001°11'1111.0
2014-Sep-01 03:33N 50°38' W 000°60'1713.1
2014-Sep-01 02:15N 50°30' W 001°24'187 7.7
2014-Aug-31 02:05N 50°50' W 006°17'916.6
2014-Aug-31 01:33N 50°59' W 006°22'3716.6
2014-Aug-30 23:19N 51°34' W 006°41'1316.7
2014-Aug-30 22:33N 51°46' W 006°47'1716.6
2014-Aug-30 21:33N 52°02' W 006°56'1212.3
2014-Aug-30 20:33N 52°14' W 006°57'6 5.8
2014-Aug-30 19:33N 52°15' W 007°06'0 0.4
2014-Aug-30 18:33N 52°16' W 007°06'0 0.0
2014-Aug-30 17:33N 52°16' W 007°06'0 0.0
2014-Aug-30 16:33N 52°16' W 007°06'0 0.0
2014-Aug-30 15:32N 52°16' W 007°06'0 0.0
2014-Aug-30 14:32N 52°16' W 007°06'0 0.0
2014-Aug-30 13:32N 52°16' W 007°06'0 0.0
2014-Aug-30 12:32N 52°16' W 007°06'0 0.0
2014-Aug-30 11:32N 52°16' W 007°06'0 0.0
2014-Aug-30 10:32N 52°16' W 007°06'0 0.0
2014-Aug-30 09:32N 52°16' W 007°06'0 0.0
2014-Aug-30 08:32N 52°16' W 007°06'1 1.2
2014-Aug-30 07:34N 52°15' W 007°04'6 6.2
2014-Aug-30 06:33N 52°12' W 006°56'8 8.1
2014-Aug-30 05:33N 52°04' W 006°52'1211.9
2014-Aug-30 04:33N 52°01' W 006°33'1313.4
2014-Aug-30 03:33N 52°06' W 006°13'1312.8
2014-Aug-30 02:33N 52°17' W 006°03'1413.5
2014-Aug-30 01:33N 52°30' W 005°55'101 4.2
2014-Aug-29 01:28N 54°10' W 005°29'1112.4
2014-Aug-29 00:34N 54°20' W 005°22'1211.7
2014-Aug-28 23:34N 54°32' W 005°22'1212.0
2014-Aug-28 22:33N 54°43' W 005°30'1212.1
2014-Aug-28 21:33N 54°40' W 005°50'4 2.9
2014-Aug-28 20:17N 54°37' W 005°54'0 0.0
2014-Aug-28 19:12N 54°37' W 005°54'0 0.0
2014-Aug-28 07:31N 54°37' W 005°54'7 7.7
2014-Aug-28 06:33N 54°42' W 005°44'1313.2
2014-Aug-28 05:33N 54°55' W 005°39'1615.2
2014-Aug-28 04:31N 55°09' W 005°52'1212.7
2014-Aug-28 03:33N 55°19' W 006°04'1312.8
2014-Aug-28 02:33N 55°26' W 006°23'1414.0
2014-Aug-28 01:33N 55°37' W 006°38'1414.2
2014-Aug-28 00:33N 55°49' W 006°53'14114.1
2014-Aug-27 14:33N 58°09' W 006°20'4 3.9
2014-Aug-27 13:31N 58°12' W 006°23'0 0.0
2014-Aug-27 12:31N 58°12' W 006°23'0 0.0
2014-Aug-27 11:31N 58°12' W 006°23'0 0.0
2014-Aug-27 10:31N 58°12' W 006°23'0 0.0
2014-Aug-27 09:31N 58°12' W 006°23'0 0.0
2014-Aug-27 08:31N 58°12' W 006°23'0 0.0
2014-Aug-27 07:33N 58°12' W 006°23'0 0.3
2014-Aug-27 06:33N 58°12' W 006°23'8 7.7
2014-Aug-27 05:33N 58°11' W 006°09'1111.2
2014-Aug-27 04:33N 58°22' W 006°06'1212.2
2014-Aug-27 03:33N 58°34' W 006°11'  
2014-Aug-24 03:30N 63°37' W 022°04'3711.9
2014-Aug-24 00:26N 64°05' W 022°59'1213.4
2014-Aug-23 23:33N 64°10' W 022°34'1414.5
2014-Aug-23 22:33N 64°11' W 022°01'5 4.5
2014-Aug-23 21:33N 64°09' W 021°52'0 0.0
2014-Aug-23 20:33N 64°09' W 021°52'0 0.0
2014-Aug-23 19:33N 64°09' W 021°52'  
Track history (hours):
 
Tides and Currents Weather Stations Pressure Air Temp Water Temp Dewpoint Dewpoint Depression Visibility Wind Speed Wind Dir Waves Ship Positions

Silver Cloud

Operator: V Ships Leisure SAM

Last reported at 2014-Sep-01 06:28 UTC. Time now 2014-Sep-01 11:44 UTC.
Position N 50°53' W 001°24'.

Length 155 m; draft 5.7 m.

Type: Passenger vessel. MMSI: 309027000.

Date/timePositionNaut miles runAvg speedWind from/ knotsBaromVisibWave heightAir tempDewpointWater temp
2014-Sep-01 06:28N 50°53' W 001°24'1 0.6
2014-Sep-01 05:33N 50°53' W 001°23'1010.2
2014-Sep-01 04:33N 50°46' W 001°11'1111.0
2014-Sep-01 03:33N 50°38' W 000°60'1713.1
2014-Sep-01 02:15N 50°30' W 001°24'187 7.7
2014-Aug-31 02:05N 50°50' W 006°17'916.6
2014-Aug-31 01:33N 50°59' W 006°22'3716.6
2014-Aug-30 23:19N 51°34' W 006°41'1316.7
2014-Aug-30 22:33N 51°46' W 006°47'1716.6
2014-Aug-30 21:33N 52°02' W 006°56'1212.3
2014-Aug-30 20:33N 52°14' W 006°57'6 5.8
2014-Aug-30 19:33N 52°15' W 007°06'0 0.4
2014-Aug-30 18:33N 52°16' W 007°06'0 0.0
2014-Aug-30 17:33N 52°16' W 007°06'0 0.0
2014-Aug-30 16:33N 52°16' W 007°06'0 0.0
2014-Aug-30 15:32N 52°16' W 007°06'0 0.0
2014-Aug-30 14:32N 52°16' W 007°06'0 0.0
2014-Aug-30 13:32N 52°16' W 007°06'0 0.0
2014-Aug-30 12:32N 52°16' W 007°06'0 0.0
2014-Aug-30 11:32N 52°16' W 007°06'0 0.0
2014-Aug-30 10:32N 52°16' W 007°06'0 0.0
2014-Aug-30 09:32N 52°16' W 007°06'0 0.0
2014-Aug-30 08:32N 52°16' W 007°06'1 1.2
2014-Aug-30 07:34N 52°15' W 007°04'6 6.2
2014-Aug-30 06:33N 52°12' W 006°56'8 8.1
2014-Aug-30 05:33N 52°04' W 006°52'1211.9
2014-Aug-30 04:33N 52°01' W 006°33'1313.4
2014-Aug-30 03:33N 52°06' W 006°13'1312.8
2014-Aug-30 02:33N 52°17' W 006°03'1413.5
2014-Aug-30 01:33N 52°30' W 005°55'101 4.2
2014-Aug-29 01:28N 54°10' W 005°29'1112.4
2014-Aug-29 00:34N 54°20' W 005°22'1211.7
2014-Aug-28 23:34N 54°32' W 005°22'1212.0
2014-Aug-28 22:33N 54°43' W 005°30'1212.1
2014-Aug-28 21:33N 54°40' W 005°50'4 2.9
2014-Aug-28 20:17N 54°37' W 005°54'0 0.0
2014-Aug-28 19:12N 54°37' W 005°54'0 0.0
2014-Aug-28 07:31N 54°37' W 005°54'7 7.7
2014-Aug-28 06:33N 54°42' W 005°44'1313.2
2014-Aug-28 05:33N 54°55' W 005°39'1615.2
2014-Aug-28 04:31N 55°09' W 005°52'1212.7
2014-Aug-28 03:33N 55°19' W 006°04'1312.8
2014-Aug-28 02:33N 55°26' W 006°23'1414.0
2014-Aug-28 01:33N 55°37' W 006°38'1414.2
2014-Aug-28 00:33N 55°49' W 006°53'14114.1
2014-Aug-27 14:33N 58°09' W 006°20'4 3.9
2014-Aug-27 13:31N 58°12' W 006°23'0 0.0
2014-Aug-27 12:31N 58°12' W 006°23'0 0.0
2014-Aug-27 11:31N 58°12' W 006°23'0 0.0
2014-Aug-27 10:31N 58°12' W 006°23'0 0.0
2014-Aug-27 09:31N 58°12' W 006°23'0 0.0
2014-Aug-27 08:31N 58°12' W 006°23'0 0.0
2014-Aug-27 07:33N 58°12' W 006°23'0 0.3
2014-Aug-27 06:33N 58°12' W 006°23'8 7.7
2014-Aug-27 05:33N 58°11' W 006°09'1111.2
2014-Aug-27 04:33N 58°22' W 006°06'1212.2
2014-Aug-27 03:33N 58°34' W 006°11'  
2014-Aug-24 03:30N 63°37' W 022°04'3711.9
2014-Aug-24 00:26N 64°05' W 022°59'1213.4
2014-Aug-23 23:33N 64°10' W 022°34'1414.5
2014-Aug-23 22:33N 64°11' W 022°01'5 4.5
2014-Aug-23 21:33N 64°09' W 021°52'0 0.0
2014-Aug-23 20:33N 64°09' W 021°52'0 0.0
2014-Aug-23 19:33N 64°09' W 021°52'  

Dump ship's entire track history